sensor_id;sensor_type;location;lat;lon;timestamp;P1;durP1;ratioP1;P2;durP2;ratioP2
82242;SDS011;71844;51.528;4.442;2024-01-10T00:01:59;3.15;;;1.73;;
82242;SDS011;71844;51.528;4.442;2024-01-10T00:04:26;4.05;;;1.90;;
82242;SDS011;71844;51.528;4.442;2024-01-10T00:06:53;4.15;;;1.70;;
82242;SDS011;71844;51.528;4.442;2024-01-10T00:09:20;3.33;;;1.55;;
82242;SDS011;71844;51.528;4.442;2024-01-10T00:11:47;3.13;;;1.60;;
82242;SDS011;71844;51.528;4.442;2024-01-10T00:14:14;4.47;;;1.33;;
82242;SDS011;71844;51.528;4.442;2024-01-10T00:16:41;4.20;;;2.40;;
82242;SDS011;71844;51.528;4.442;2024-01-10T00:19:08;4.35;;;1.92;;
82242;SDS011;71844;51.528;4.442;2024-01-10T00:21:35;3.53;;;2.17;;
82242;SDS011;71844;51.528;4.442;2024-01-10T00:24:03;2.58;;;1.67;;
82242;SDS011;71844;51.528;4.442;2024-01-10T00:26:30;3.10;;;1.77;;
82242;SDS011;71844;51.528;4.442;2024-01-10T00:28:57;3.05;;;1.67;;
82242;SDS011;71844;51.528;4.442;2024-01-10T00:31:30;2.67;;;1.38;;
82242;SDS011;71844;51.528;4.442;2024-01-10T00:33:57;3.47;;;1.65;;
82242;SDS011;71844;51.528;4.442;2024-01-10T00:36:25;3.95;;;1.42;;
82242;SDS011;71844;51.528;4.442;2024-01-10T00:38:52;3.53;;;1.75;;
82242;SDS011;71844;51.528;4.442;2024-01-10T00:41:19;2.47;;;1.73;;
82242;SDS011;71844;51.528;4.442;2024-01-10T00:43:46;2.30;;;1.52;;
82242;SDS011;71844;51.528;4.442;2024-01-10T00:46:13;3.70;;;1.10;;
82242;SDS011;71844;51.528;4.442;2024-01-10T00:48:39;3.33;;;1.30;;
82242;SDS011;71844;51.528;4.442;2024-01-10T00:51:07;3.13;;;1.77;;
82242;SDS011;71844;51.528;4.442;2024-01-10T00:53:35;3.30;;;1.58;;
82242;SDS011;71844;51.528;4.442;2024-01-10T00:56:05;4.43;;;1.90;;
82242;SDS011;71844;51.528;4.442;2024-01-10T00:58:33;4.18;;;1.42;;
82242;SDS011;71844;51.528;4.442;2024-01-10T01:01:00;2.95;;;1.80;;
82242;SDS011;71844;51.528;4.442;2024-01-10T01:03:27;3.03;;;1.67;;
82242;SDS011;71844;51.528;4.442;2024-01-10T01:05:54;3.20;;;1.13;;
82242;SDS011;71844;51.528;4.442;2024-01-10T01:08:21;4.50;;;1.92;;
82242;SDS011;71844;51.528;4.442;2024-01-10T01:10:48;3.45;;;1.92;;
82242;SDS011;71844;51.528;4.442;2024-01-10T01:13:15;4.47;;;1.88;;
82242;SDS011;71844;51.528;4.442;2024-01-10T01:15:42;1.52;;;0.77;;
82242;SDS011;71844;51.528;4.442;2024-01-10T01:18:09;4.13;;;1.80;;
82242;SDS011;71844;51.528;4.442;2024-01-10T01:20:39;5.53;;;1.92;;
82242;SDS011;71844;51.528;4.442;2024-01-10T01:23:06;2.78;;;1.77;;
82242;SDS011;71844;51.528;4.442;2024-01-10T01:25:33;3.92;;;1.75;;
82242;SDS011;71844;51.528;4.442;2024-01-10T01:28:01;3.88;;;1.63;;
82242;SDS011;71844;51.528;4.442;2024-01-10T01:30:27;3.83;;;2.00;;
82242;SDS011;71844;51.528;4.442;2024-01-10T01:32:55;2.92;;;1.52;;
82242;SDS011;71844;51.528;4.442;2024-01-10T01:35:22;3.67;;;1.80;;
82242;SDS011;71844;51.528;4.442;2024-01-10T01:37:50;3.05;;;1.42;;
82242;SDS011;71844;51.528;4.442;2024-01-10T01:40:18;3.92;;;1.02;;
82242;SDS011;71844;51.528;4.442;2024-01-10T01:42:45;4.03;;;2.15;;
82242;SDS011;71844;51.528;4.442;2024-01-10T01:45:12;3.20;;;1.67;;
82242;SDS011;71844;51.528;4.442;2024-01-10T01:47:40;4.38;;;1.45;;
82242;SDS011;71844;51.528;4.442;2024-01-10T01:50:07;3.15;;;1.85;;
82242;SDS011;71844;51.528;4.442;2024-01-10T01:52:35;5.00;;;1.83;;
82242;SDS011;71844;51.528;4.442;2024-01-10T01:55:03;2.30;;;1.50;;
82242;SDS011;71844;51.528;4.442;2024-01-10T01:57:32;2.53;;;1.65;;
82242;SDS011;71844;51.528;4.442;2024-01-10T02:00:00;5.32;;;2.00;;
82242;SDS011;71844;51.528;4.442;2024-01-10T02:05:08;3.17;;;1.60;;
82242;SDS011;71844;51.528;4.442;2024-01-10T02:07:35;1.92;;;1.52;;
82242;SDS011;71844;51.528;4.442;2024-01-10T02:10:02;2.70;;;1.85;;
82242;SDS011;71844;51.528;4.442;2024-01-10T02:12:29;3.97;;;1.55;;
82242;SDS011;71844;51.528;4.442;2024-01-10T02:14:56;2.85;;;1.77;;
82242;SDS011;71844;51.528;4.442;2024-01-10T02:17:23;2.55;;;1.63;;
82242;SDS011;71844;51.528;4.442;2024-01-10T02:20:07;2.90;;;1.63;;
82242;SDS011;71844;51.528;4.442;2024-01-10T02:22:37;2.67;;;1.63;;
82242;SDS011;71844;51.528;4.442;2024-01-10T02:25:12;3.45;;;2.05;;
82242;SDS011;71844;51.528;4.442;2024-01-10T02:27:40;2.78;;;1.60;;
82242;SDS011;71844;51.528;4.442;2024-01-10T02:30:07;3.25;;;1.98;;
82242;SDS011;71844;51.528;4.442;2024-01-10T02:32:35;2.33;;;1.50;;
82242;SDS011;71844;51.528;4.442;2024-01-10T02:35:03;5.03;;;1.90;;
82242;SDS011;71844;51.528;4.442;2024-01-10T02:37:31;2.92;;;1.20;;
82242;SDS011;71844;51.528;4.442;2024-01-10T02:39:58;2.08;;;1.60;;
82242;SDS011;71844;51.528;4.442;2024-01-10T02:42:25;3.08;;;1.27;;
82242;SDS011;71844;51.528;4.442;2024-01-10T02:44:53;3.55;;;1.30;;
82242;SDS011;71844;51.528;4.442;2024-01-10T02:47:21;2.70;;;1.38;;
82242;SDS011;71844;51.528;4.442;2024-01-10T02:49:48;2.83;;;1.50;;
82242;SDS011;71844;51.528;4.442;2024-01-10T02:52:15;2.88;;;1.15;;
82242;SDS011;71844;51.528;4.442;2024-01-10T02:54:42;3.17;;;2.10;;
82242;SDS011;71844;51.528;4.442;2024-01-10T02:57:09;3.95;;;1.95;;
82242;SDS011;71844;51.528;4.442;2024-01-10T02:59:35;4.57;;;2.10;;
82242;SDS011;71844;51.528;4.442;2024-01-10T03:02:02;3.83;;;1.48;;
82242;SDS011;71844;51.528;4.442;2024-01-10T03:04:30;3.40;;;2.05;;
82242;SDS011;71844;51.528;4.442;2024-01-10T03:06:57;4.07;;;2.17;;
82242;SDS011;71844;51.528;4.442;2024-01-10T03:09:23;4.63;;;2.15;;
82242;SDS011;71844;51.528;4.442;2024-01-10T03:11:50;2.67;;;2.33;;
82242;SDS011;71844;51.528;4.442;2024-01-10T03:14:20;3.53;;;1.98;;
82242;SDS011;71844;51.528;4.442;2024-01-10T03:16:48;2.47;;;1.38;;
82242;SDS011;71844;51.528;4.442;2024-01-10T03:19:15;3.10;;;2.53;;
82242;SDS011;71844;51.528;4.442;2024-01-10T03:21:42;3.63;;;1.63;;
82242;SDS011;71844;51.528;4.442;2024-01-10T03:24:09;3.15;;;1.60;;
82242;SDS011;71844;51.528;4.442;2024-01-10T03:26:35;3.17;;;1.50;;
82242;SDS011;71844;51.528;4.442;2024-01-10T03:29:03;4.32;;;1.50;;
82242;SDS011;71844;51.528;4.442;2024-01-10T03:31:30;3.28;;;2.17;;
82242;SDS011;71844;51.528;4.442;2024-01-10T03:33:57;4.15;;;1.73;;
82242;SDS011;71844;51.528;4.442;2024-01-10T03:36:27;2.30;;;0.90;;
82242;SDS011;71844;51.528;4.442;2024-01-10T03:38:54;3.45;;;2.08;;
82242;SDS011;71844;51.528;4.442;2024-01-10T03:41:21;2.20;;;1.50;;
82242;SDS011;71844;51.528;4.442;2024-01-10T03:43:48;4.72;;;1.85;;
82242;SDS011;71844;51.528;4.442;2024-01-10T03:46:16;4.65;;;1.85;;
82242;SDS011;71844;51.528;4.442;2024-01-10T03:48:43;3.17;;;1.27;;
82242;SDS011;71844;51.528;4.442;2024-01-10T03:51:17;3.45;;;0.98;;
82242;SDS011;71844;51.528;4.442;2024-01-10T03:53:45;3.45;;;2.13;;
82242;SDS011;71844;51.528;4.442;2024-01-10T03:56:12;3.08;;;1.38;;
82242;SDS011;71844;51.528;4.442;2024-01-10T03:58:39;3.53;;;1.60;;
82242;SDS011;71844;51.528;4.442;2024-01-10T04:03:51;3.30;;;1.60;;
82242;SDS011;71844;51.528;4.442;2024-01-10T04:06:19;3.17;;;1.77;;
82242;SDS011;71844;51.528;4.442;2024-01-10T04:08:46;2.75;;;1.63;;
82242;SDS011;71844;51.528;4.442;2024-01-10T04:11:13;2.42;;;1.35;;
82242;SDS011;71844;51.528;4.442;2024-01-10T04:13:40;3.03;;;1.70;;
82242;SDS011;71844;51.528;4.442;2024-01-10T04:16:07;2.17;;;1.20;;
82242;SDS011;71844;51.528;4.442;2024-01-10T04:18:34;2.88;;;1.45;;
82242;SDS011;71844;51.528;4.442;2024-01-10T04:21:01;3.08;;;1.60;;
82242;SDS011;71844;51.528;4.442;2024-01-10T04:23:28;4.57;;;1.65;;
82242;SDS011;71844;51.528;4.442;2024-01-10T04:25:57;3.35;;;1.75;;
82242;SDS011;71844;51.528;4.442;2024-01-10T04:28:24;2.95;;;1.23;;
82242;SDS011;71844;51.528;4.442;2024-01-10T04:30:50;2.40;;;1.48;;
82242;SDS011;71844;51.528;4.442;2024-01-10T04:33:17;2.88;;;1.35;;
82242;SDS011;71844;51.528;4.442;2024-01-10T04:35:44;4.95;;;1.60;;
82242;SDS011;71844;51.528;4.442;2024-01-10T04:38:11;3.97;;;2.45;;
82242;SDS011;71844;51.528;4.442;2024-01-10T04:40:38;3.80;;;2.10;;
82242;SDS011;71844;51.528;4.442;2024-01-10T04:43:05;3.50;;;2.55;;
82242;SDS011;71844;51.528;4.442;2024-01-10T04:45:31;2.67;;;1.60;;
82242;SDS011;71844;51.528;4.442;2024-01-10T04:47:59;2.58;;;1.63;;
82242;SDS011;71844;51.528;4.442;2024-01-10T04:50:25;3.42;;;2.00;;
82242;SDS011;71844;51.528;4.442;2024-01-10T04:52:53;2.97;;;1.70;;
82242;SDS011;71844;51.528;4.442;2024-01-10T04:55:19;3.95;;;1.65;;
82242;SDS011;71844;51.528;4.442;2024-01-10T04:57:46;3.33;;;1.80;;
82242;SDS011;71844;51.528;4.442;2024-01-10T05:00:13;2.40;;;1.30;;
82242;SDS011;71844;51.528;4.442;2024-01-10T05:02:40;3.55;;;2.00;;
82242;SDS011;71844;51.528;4.442;2024-01-10T05:05:07;3.97;;;1.85;;
82242;SDS011;71844;51.528;4.442;2024-01-10T05:07:34;4.07;;;1.85;;
82242;SDS011;71844;51.528;4.442;2024-01-10T05:10:01;3.75;;;1.58;;
82242;SDS011;71844;51.528;4.442;2024-01-10T05:12:28;3.20;;;1.65;;
82242;SDS011;71844;51.528;4.442;2024-01-10T05:14:55;3.08;;;1.83;;
82242;SDS011;71844;51.528;4.442;2024-01-10T05:17:22;2.33;;;1.65;;
82242;SDS011;71844;51.528;4.442;2024-01-10T05:19:49;3.88;;;2.15;;
82242;SDS011;71844;51.528;4.442;2024-01-10T05:22:17;2.97;;;1.88;;
82242;SDS011;71844;51.528;4.442;2024-01-10T05:24:44;3.92;;;1.77;;
82242;SDS011;71844;51.528;4.442;2024-01-10T05:27:11;3.40;;;2.35;;
82242;SDS011;71844;51.528;4.442;2024-01-10T05:29:38;3.40;;;2.15;;
82242;SDS011;71844;51.528;4.442;2024-01-10T05:32:05;4.05;;;2.08;;
82242;SDS011;71844;51.528;4.442;2024-01-10T05:34:32;2.45;;;1.40;;
82242;SDS011;71844;51.528;4.442;2024-01-10T05:36:59;3.53;;;1.35;;
82242;SDS011;71844;51.528;4.442;2024-01-10T05:39:26;3.90;;;1.90;;
82242;SDS011;71844;51.528;4.442;2024-01-10T05:41:53;3.42;;;2.10;;
82242;SDS011;71844;51.528;4.442;2024-01-10T05:46:55;4.07;;;2.00;;
82242;SDS011;71844;51.528;4.442;2024-01-10T05:49:26;4.18;;;2.08;;
82242;SDS011;71844;51.528;4.442;2024-01-10T05:51:52;4.28;;;2.13;;
82242;SDS011;71844;51.528;4.442;2024-01-10T05:54:19;2.88;;;1.48;;
82242;SDS011;71844;51.528;4.442;2024-01-10T05:56:46;3.28;;;1.30;;
82242;SDS011;71844;51.528;4.442;2024-01-10T05:59:14;2.35;;;0.90;;
82242;SDS011;71844;51.528;4.442;2024-01-10T06:01:43;4.03;;;2.30;;
82242;SDS011;71844;51.528;4.442;2024-01-10T06:04:10;3.05;;;1.75;;
82242;SDS011;71844;51.528;4.442;2024-01-10T06:06:37;4.20;;;1.98;;
82242;SDS011;71844;51.528;4.442;2024-01-10T06:09:04;3.88;;;2.05;;
82242;SDS011;71844;51.528;4.442;2024-01-10T06:11:31;3.90;;;1.65;;
82242;SDS011;71844;51.528;4.442;2024-01-10T06:13:58;2.88;;;0.90;;
82242;SDS011;71844;51.528;4.442;2024-01-10T06:16:25;6.65;;;3.20;;
82242;SDS011;71844;51.528;4.442;2024-01-10T06:18:52;4.65;;;1.83;;
82242;SDS011;71844;51.528;4.442;2024-01-10T06:21:19;4.35;;;1.92;;
82242;SDS011;71844;51.528;4.442;2024-01-10T06:23:46;2.50;;;1.45;;
82242;SDS011;71844;51.528;4.442;2024-01-10T06:26:13;4.45;;;1.50;;
82242;SDS011;71844;51.528;4.442;2024-01-10T06:28:40;3.70;;;1.77;;
82242;SDS011;71844;51.528;4.442;2024-01-10T06:31:08;2.83;;;1.67;;
82242;SDS011;71844;51.528;4.442;2024-01-10T06:33:38;3.53;;;1.75;;
82242;SDS011;71844;51.528;4.442;2024-01-10T06:36:05;8.45;;;1.65;;
82242;SDS011;71844;51.528;4.442;2024-01-10T06:38:32;3.55;;;1.55;;
82242;SDS011;71844;51.528;4.442;2024-01-10T06:40:59;3.47;;;1.45;;
82242;SDS011;71844;51.528;4.442;2024-01-10T06:43:33;3.58;;;1.95;;
82242;SDS011;71844;51.528;4.442;2024-01-10T06:46:00;3.20;;;1.73;;
82242;SDS011;71844;51.528;4.442;2024-01-10T06:48:29;4.88;;;1.83;;
82242;SDS011;71844;51.528;4.442;2024-01-10T06:50:58;4.65;;;2.08;;
82242;SDS011;71844;51.528;4.442;2024-01-10T06:53:32;3.40;;;1.63;;
82242;SDS011;71844;51.528;4.442;2024-01-10T06:55:59;2.95;;;1.35;;
82242;SDS011;71844;51.528;4.442;2024-01-10T06:58:26;3.13;;;2.10;;
82242;SDS011;71844;51.528;4.442;2024-01-10T07:00:53;3.72;;;2.22;;
82242;SDS011;71844;51.528;4.442;2024-01-10T07:03:20;3.85;;;2.10;;
82242;SDS011;71844;51.528;4.442;2024-01-10T07:05:47;2.60;;;1.10;;
82242;SDS011;71844;51.528;4.442;2024-01-10T07:08:14;2.33;;;1.40;;
82242;SDS011;71844;51.528;4.442;2024-01-10T07:10:43;4.50;;;1.80;;
82242;SDS011;71844;51.528;4.442;2024-01-10T07:13:10;4.25;;;1.80;;
82242;SDS011;71844;51.528;4.442;2024-01-10T07:15:37;2.42;;;1.35;;
82242;SDS011;71844;51.528;4.442;2024-01-10T07:18:05;3.10;;;1.73;;
82242;SDS011;71844;51.528;4.442;2024-01-10T07:20:32;4.10;;;2.15;;
82242;SDS011;71844;51.528;4.442;2024-01-10T07:22:59;3.05;;;1.95;;
82242;SDS011;71844;51.528;4.442;2024-01-10T07:25:26;3.97;;;1.80;;
82242;SDS011;71844;51.528;4.442;2024-01-10T07:27:53;3.15;;;1.67;;
82242;SDS011;71844;51.528;4.442;2024-01-10T07:30:20;2.60;;;1.45;;
82242;SDS011;71844;51.528;4.442;2024-01-10T07:32:47;3.50;;;1.92;;
82242;SDS011;71844;51.528;4.442;2024-01-10T07:35:14;4.78;;;1.90;;
82242;SDS011;71844;51.528;4.442;2024-01-10T07:37:41;3.30;;;1.70;;
82242;SDS011;71844;51.528;4.442;2024-01-10T07:40:09;2.90;;;1.65;;
82242;SDS011;71844;51.528;4.442;2024-01-10T07:42:37;3.13;;;2.00;;
82242;SDS011;71844;51.528;4.442;2024-01-10T07:45:06;3.13;;;2.10;;
82242;SDS011;71844;51.528;4.442;2024-01-10T07:47:34;4.07;;;2.30;;
82242;SDS011;71844;51.528;4.442;2024-01-10T07:50:08;3.40;;;2.20;;
82242;SDS011;71844;51.528;4.442;2024-01-10T07:52:36;8.70;;;2.10;;
82242;SDS011;71844;51.528;4.442;2024-01-10T07:55:03;4.28;;;2.33;;
82242;SDS011;71844;51.528;4.442;2024-01-10T07:57:32;4.00;;;2.45;;
82242;SDS011;71844;51.528;4.442;2024-01-10T08:00:00;2.17;;;1.65;;
82242;SDS011;71844;51.528;4.442;2024-01-10T08:02:35;6.78;;;3.78;;
82242;SDS011;71844;51.528;4.442;2024-01-10T08:05:03;4.47;;;2.20;;
82242;SDS011;71844;51.528;4.442;2024-01-10T08:07:37;5.07;;;2.13;;
82242;SDS011;71844;51.528;4.442;2024-01-10T08:10:05;3.40;;;1.60;;
82242;SDS011;71844;51.528;4.442;2024-01-10T08:12:34;4.22;;;1.20;;
82242;SDS011;71844;51.528;4.442;2024-01-10T08:15:01;3.13;;;1.40;;
82242;SDS011;71844;51.528;4.442;2024-01-10T08:17:28;3.03;;;1.60;;
82242;SDS011;71844;51.528;4.442;2024-01-10T08:19:55;2.67;;;1.55;;
82242;SDS011;71844;51.528;4.442;2024-01-10T08:22:22;2.90;;;1.33;;
82242;SDS011;71844;51.528;4.442;2024-01-10T08:27:19;3.05;;;1.23;;
82242;SDS011;71844;51.528;4.442;2024-01-10T08:29:46;5.18;;;1.88;;
82242;SDS011;71844;51.528;4.442;2024-01-10T08:32:13;5.18;;;1.90;;
82242;SDS011;71844;51.528;4.442;2024-01-10T08:34:42;3.30;;;1.48;;
82242;SDS011;71844;51.528;4.442;2024-01-10T08:37:11;5.75;;;1.98;;
82242;SDS011;71844;51.528;4.442;2024-01-10T08:39:38;4.40;;;1.73;;
82242;SDS011;71844;51.528;4.442;2024-01-10T08:42:05;4.85;;;1.80;;
82242;SDS011;71844;51.528;4.442;2024-01-10T08:44:32;3.97;;;1.55;;
82242;SDS011;71844;51.528;4.442;2024-01-10T08:46:58;3.90;;;1.73;;
82242;SDS011;71844;51.528;4.442;2024-01-10T08:49:25;4.28;;;1.70;;
82242;SDS011;71844;51.528;4.442;2024-01-10T08:51:53;4.72;;;1.67;;
82242;SDS011;71844;51.528;4.442;2024-01-10T08:54:19;3.28;;;1.65;;
82242;SDS011;71844;51.528;4.442;2024-01-10T08:56:49;5.32;;;1.88;;
82242;SDS011;71844;51.528;4.442;2024-01-10T08:59:15;2.15;;;0.90;;
82242;SDS011;71844;51.528;4.442;2024-01-10T09:01:42;4.28;;;1.73;;
82242;SDS011;71844;51.528;4.442;2024-01-10T09:04:10;4.10;;;1.60;;
82242;SDS011;71844;51.528;4.442;2024-01-10T09:06:37;4.40;;;1.42;;
82242;SDS011;71844;51.528;4.442;2024-01-10T09:09:04;2.90;;;1.23;;
82242;SDS011;71844;51.528;4.442;2024-01-10T09:11:30;4.47;;;1.75;;
82242;SDS011;71844;51.528;4.442;2024-01-10T09:14:02;4.30;;;1.20;;
82242;SDS011;71844;51.528;4.442;2024-01-10T09:16:28;3.15;;;1.52;;
82242;SDS011;71844;51.528;4.442;2024-01-10T09:18:55;4.75;;;1.80;;
82242;SDS011;71844;51.528;4.442;2024-01-10T09:21:24;5.35;;;2.28;;
82242;SDS011;71844;51.528;4.442;2024-01-10T09:23:53;4.38;;;1.60;;
82242;SDS011;71844;51.528;4.442;2024-01-10T09:26:20;5.13;;;2.05;;
82242;SDS011;71844;51.528;4.442;2024-01-10T09:28:47;5.25;;;2.20;;
82242;SDS011;71844;51.528;4.442;2024-01-10T09:31:14;3.97;;;1.67;;
82242;SDS011;71844;51.528;4.442;2024-01-10T09:33:41;4.47;;;1.85;;
82242;SDS011;71844;51.528;4.442;2024-01-10T09:36:08;5.53;;;2.40;;
82242;SDS011;71844;51.528;4.442;2024-01-10T09:38:35;5.65;;;2.13;;
82242;SDS011;71844;51.528;4.442;2024-01-10T09:41:03;4.70;;;1.90;;
82242;SDS011;71844;51.528;4.442;2024-01-10T09:43:31;4.22;;;1.80;;
82242;SDS011;71844;51.528;4.442;2024-01-10T09:46:00;7.60;;;2.67;;
82242;SDS011;71844;51.528;4.442;2024-01-10T09:48:29;5.30;;;2.15;;
82242;SDS011;71844;51.528;4.442;2024-01-10T09:50:56;4.22;;;1.80;;
82242;SDS011;71844;51.528;4.442;2024-01-10T09:53:24;5.10;;;2.70;;
82242;SDS011;71844;51.528;4.442;2024-01-10T09:55:56;6.35;;;2.30;;
82242;SDS011;71844;51.528;4.442;2024-01-10T09:58:26;5.03;;;2.38;;
82242;SDS011;71844;51.528;4.442;2024-01-10T10:00:53;6.88;;;2.03;;
82242;SDS011;71844;51.528;4.442;2024-01-10T10:03:21;6.88;;;3.05;;
82242;SDS011;71844;51.528;4.442;2024-01-10T10:05:48;5.50;;;2.75;;
82242;SDS011;71844;51.528;4.442;2024-01-10T10:08:15;4.82;;;2.65;;
82242;SDS011;71844;51.528;4.442;2024-01-10T10:10:49;4.97;;;2.28;;
82242;SDS011;71844;51.528;4.442;2024-01-10T10:13:26;5.70;;;2.83;;
82242;SDS011;71844;51.528;4.442;2024-01-10T10:16:00;5.45;;;2.60;;
82242;SDS011;71844;51.528;4.442;2024-01-10T10:18:28;4.85;;;2.40;;
82242;SDS011;71844;51.528;4.442;2024-01-10T10:21:12;6.97;;;3.40;;
82242;SDS011;71844;51.528;4.442;2024-01-10T10:23:41;5.22;;;2.03;;
82242;SDS011;71844;51.528;4.442;2024-01-10T10:26:16;5.32;;;2.10;;
82242;SDS011;71844;51.528;4.442;2024-01-10T10:31:23;6.03;;;2.58;;
82242;SDS011;71844;51.528;4.442;2024-01-10T10:33:51;5.47;;;2.60;;
82242;SDS011;71844;51.528;4.442;2024-01-10T10:36:19;5.40;;;2.78;;
82242;SDS011;71844;51.528;4.442;2024-01-10T10:38:49;6.90;;;2.92;;
82242;SDS011;71844;51.528;4.442;2024-01-10T10:41:16;10.00;;;3.25;;
82242;SDS011;71844;51.528;4.442;2024-01-10T10:43:44;5.32;;;2.75;;
82242;SDS011;71844;51.528;4.442;2024-01-10T10:46:13;7.40;;;2.70;;
82242;SDS011;71844;51.528;4.442;2024-01-10T10:48:40;6.65;;;3.08;;
82242;SDS011;71844;51.528;4.442;2024-01-10T10:53:44;6.28;;;2.63;;
82242;SDS011;71844;51.528;4.442;2024-01-10T10:56:13;6.32;;;2.60;;
82242;SDS011;71844;51.528;4.442;2024-01-10T10:58:41;5.07;;;2.33;;
82242;SDS011;71844;51.528;4.442;2024-01-10T11:01:13;7.07;;;2.70;;
82242;SDS011;71844;51.528;4.442;2024-01-10T11:03:41;6.93;;;3.13;;
82242;SDS011;71844;51.528;4.442;2024-01-10T11:06:11;8.70;;;3.08;;
82242;SDS011;71844;51.528;4.442;2024-01-10T11:14:13;5.38;;;2.67;;
82242;SDS011;71844;51.528;4.442;2024-01-10T11:22:46;6.20;;;2.45;;
82242;SDS011;71844;51.528;4.442;2024-01-10T11:25:34;6.72;;;2.90;;
82242;SDS011;71844;51.528;4.442;2024-01-10T11:28:04;5.35;;;2.60;;
82242;SDS011;71844;51.528;4.442;2024-01-10T11:30:34;5.32;;;2.60;;
82242;SDS011;71844;51.528;4.442;2024-01-10T11:33:09;5.38;;;2.45;;
82242;SDS011;71844;51.528;4.442;2024-01-10T11:38:41;6.53;;;2.72;;
82242;SDS011;71844;51.528;4.442;2024-01-10T11:41:12;6.35;;;2.83;;
82242;SDS011;71844;51.528;4.442;2024-01-10T11:46:38;5.78;;;2.83;;
82242;SDS011;71844;51.528;4.442;2024-01-10T11:49:09;7.45;;;2.95;;
82242;SDS011;71844;51.528;4.442;2024-01-10T11:51:38;7.30;;;3.08;;
82242;SDS011;71844;51.528;4.442;2024-01-10T11:54:11;6.20;;;3.05;;
82242;SDS011;71844;51.528;4.442;2024-01-10T11:56:38;7.97;;;3.17;;
82242;SDS011;71844;51.528;4.442;2024-01-10T11:59:13;7.22;;;3.20;;
82242;SDS011;71844;51.528;4.442;2024-01-10T12:01:42;6.80;;;3.22;;
82242;SDS011;71844;51.528;4.442;2024-01-10T12:04:09;8.10;;;3.70;;
82242;SDS011;71844;51.528;4.442;2024-01-10T12:06:48;5.68;;;3.20;;
82242;SDS011;71844;51.528;4.442;2024-01-10T12:09:16;6.65;;;2.90;;
82242;SDS011;71844;51.528;4.442;2024-01-10T12:11:43;7.22;;;3.25;;
82242;SDS011;71844;51.528;4.442;2024-01-10T12:14:10;6.57;;;3.13;;
82242;SDS011;71844;51.528;4.442;2024-01-10T12:16:38;7.32;;;3.20;;
82242;SDS011;71844;51.528;4.442;2024-01-10T12:19:05;7.22;;;3.50;;
82242;SDS011;71844;51.528;4.442;2024-01-10T12:21:32;6.43;;;3.00;;
82242;SDS011;71844;51.528;4.442;2024-01-10T12:23:59;6.55;;;3.28;;
82242;SDS011;71844;51.528;4.442;2024-01-10T12:26:26;7.63;;;3.30;;
82242;SDS011;71844;51.528;4.442;2024-01-10T12:28:59;6.50;;;3.38;;
82242;SDS011;71844;51.528;4.442;2024-01-10T12:31:26;7.15;;;3.17;;
82242;SDS011;71844;51.528;4.442;2024-01-10T12:33:57;8.15;;;3.92;;
82242;SDS011;71844;51.528;4.442;2024-01-10T12:36:25;7.07;;;3.13;;
82242;SDS011;71844;51.528;4.442;2024-01-10T12:38:52;6.45;;;3.25;;
82242;SDS011;71844;51.528;4.442;2024-01-10T12:41:20;8.52;;;3.33;;
82242;SDS011;71844;51.528;4.442;2024-01-10T12:43:54;6.30;;;2.95;;
82242;SDS011;71844;51.528;4.442;2024-01-10T12:46:22;5.40;;;2.63;;
82242;SDS011;71844;51.528;4.442;2024-01-10T12:49:02;6.00;;;3.15;;
82242;SDS011;71844;51.528;4.442;2024-01-10T12:51:29;8.20;;;3.53;;
82242;SDS011;71844;51.528;4.442;2024-01-10T12:54:00;10.05;;;3.38;;
82242;SDS011;71844;51.528;4.442;2024-01-10T12:56:27;7.32;;;3.72;;
82242;SDS011;71844;51.528;4.442;2024-01-10T12:58:54;6.03;;;3.10;;
82242;SDS011;71844;51.528;4.442;2024-01-10T13:01:22;6.95;;;3.42;;
82242;SDS011;71844;51.528;4.442;2024-01-10T13:03:50;6.90;;;3.60;;
82242;SDS011;71844;51.528;4.442;2024-01-10T13:06:17;10.40;;;4.70;;
82242;SDS011;71844;51.528;4.442;2024-01-10T13:08:45;6.53;;;3.03;;
82242;SDS011;71844;51.528;4.442;2024-01-10T13:11:12;6.95;;;3.25;;
82242;SDS011;71844;51.528;4.442;2024-01-10T13:13:42;8.02;;;3.70;;
82242;SDS011;71844;51.528;4.442;2024-01-10T13:16:09;7.70;;;3.33;;
82242;SDS011;71844;51.528;4.442;2024-01-10T13:18:37;8.40;;;3.63;;
82242;SDS011;71844;51.528;4.442;2024-01-10T13:21:05;7.10;;;3.92;;
82242;SDS011;71844;51.528;4.442;2024-01-10T13:23:32;7.00;;;3.00;;
82242;SDS011;71844;51.528;4.442;2024-01-10T13:26:01;6.75;;;3.17;;
82242;SDS011;71844;51.528;4.442;2024-01-10T13:28:28;9.40;;;3.88;;
82242;SDS011;71844;51.528;4.442;2024-01-10T13:30:55;7.45;;;2.90;;
82242;SDS011;71844;51.528;4.442;2024-01-10T13:33:22;10.10;;;3.17;;
82242;SDS011;71844;51.528;4.442;2024-01-10T13:35:49;8.77;;;3.83;;
82242;SDS011;71844;51.528;4.442;2024-01-10T13:38:16;7.03;;;3.35;;
82242;SDS011;71844;51.528;4.442;2024-01-10T13:40:43;8.52;;;4.25;;
82242;SDS011;71844;51.528;4.442;2024-01-10T13:43:10;8.55;;;3.95;;
82242;SDS011;71844;51.528;4.442;2024-01-10T13:45:37;8.27;;;3.15;;
82242;SDS011;71844;51.528;4.442;2024-01-10T13:48:05;8.57;;;3.60;;
82242;SDS011;71844;51.528;4.442;2024-01-10T13:50:32;8.70;;;3.97;;
82242;SDS011;71844;51.528;4.442;2024-01-10T13:52:59;6.22;;;3.05;;
82242;SDS011;71844;51.528;4.442;2024-01-10T13:55:26;7.38;;;2.95;;
82242;SDS011;71844;51.528;4.442;2024-01-10T13:57:53;12.88;;;3.53;;
82242;SDS011;71844;51.528;4.442;2024-01-10T14:00:22;8.30;;;3.58;;
82242;SDS011;71844;51.528;4.442;2024-01-10T14:02:49;6.63;;;2.65;;
82242;SDS011;71844;51.528;4.442;2024-01-10T14:05:16;7.68;;;2.90;;
82242;SDS011;71844;51.528;4.442;2024-01-10T14:07:43;6.10;;;2.97;;
82242;SDS011;71844;51.528;4.442;2024-01-10T14:10:11;7.63;;;3.03;;
82242;SDS011;71844;51.528;4.442;2024-01-10T14:12:38;8.18;;;3.58;;
82242;SDS011;71844;51.528;4.442;2024-01-10T14:17:50;5.15;;;2.55;;
82242;SDS011;71844;51.528;4.442;2024-01-10T14:20:18;6.03;;;2.55;;
82242;SDS011;71844;51.528;4.442;2024-01-10T14:22:44;5.53;;;2.40;;
82242;SDS011;71844;51.528;4.442;2024-01-10T14:25:11;7.00;;;2.53;;
82242;SDS011;71844;51.528;4.442;2024-01-10T14:27:39;4.93;;;2.40;;
82242;SDS011;71844;51.528;4.442;2024-01-10T14:30:06;5.38;;;2.38;;
82242;SDS011;71844;51.528;4.442;2024-01-10T14:32:37;7.18;;;3.03;;
82242;SDS011;71844;51.528;4.442;2024-01-10T14:35:04;6.30;;;2.60;;
82242;SDS011;71844;51.528;4.442;2024-01-10T14:37:33;6.10;;;2.88;;
82242;SDS011;71844;51.528;4.442;2024-01-10T14:40:03;7.68;;;2.88;;
82242;SDS011;71844;51.528;4.442;2024-01-10T14:42:33;7.13;;;3.10;;
82242;SDS011;71844;51.528;4.442;2024-01-10T14:45:00;7.10;;;2.75;;
82242;SDS011;71844;51.528;4.442;2024-01-10T14:47:27;10.15;;;2.85;;
82242;SDS011;71844;51.528;4.442;2024-01-10T14:49:55;8.80;;;3.75;;
82242;SDS011;71844;51.528;4.442;2024-01-10T14:52:26;8.30;;;2.92;;
82242;SDS011;71844;51.528;4.442;2024-01-10T14:54:53;6.03;;;2.83;;
82242;SDS011;71844;51.528;4.442;2024-01-10T14:57:20;7.32;;;3.15;;
82242;SDS011;71844;51.528;4.442;2024-01-10T14:59:48;9.88;;;3.45;;
82242;SDS011;71844;51.528;4.442;2024-01-10T15:02:15;5.20;;;2.58;;
82242;SDS011;71844;51.528;4.442;2024-01-10T15:04:45;5.00;;;2.42;;
82242;SDS011;71844;51.528;4.442;2024-01-10T15:07:12;9.48;;;4.03;;
82242;SDS011;71844;51.528;4.442;2024-01-10T15:09:39;8.02;;;3.45;;
82242;SDS011;71844;51.528;4.442;2024-01-10T15:12:09;7.55;;;3.00;;
82242;SDS011;71844;51.528;4.442;2024-01-10T15:14:37;7.80;;;3.10;;
82242;SDS011;71844;51.528;4.442;2024-01-10T15:17:07;6.25;;;2.72;;
82242;SDS011;71844;51.528;4.442;2024-01-10T15:19:39;7.80;;;3.33;;
82242;SDS011;71844;51.528;4.442;2024-01-10T15:22:07;7.10;;;3.17;;
82242;SDS011;71844;51.528;4.442;2024-01-10T15:24:36;5.93;;;3.05;;
82242;SDS011;71844;51.528;4.442;2024-01-10T15:27:04;7.55;;;3.38;;
82242;SDS011;71844;51.528;4.442;2024-01-10T15:29:37;11.52;;;3.55;;